createdAt,value
2018-08-19T00:00:59.553Z,6.90
2018-08-19T00:03:29.242Z,7.03
2018-08-19T00:05:58.906Z,6.87
2018-08-19T00:08:28.594Z,6.83
2018-08-19T00:11:08.714Z,7.20
2018-08-19T00:13:38.850Z,6.83
2018-08-19T00:16:09.837Z,7.43
2018-08-19T00:19:21.509Z,7.57
2018-08-19T00:21:51.269Z,7.03
2018-08-19T00:24:21.028Z,7.00
2018-08-19T00:26:54.140Z,7.17
2018-08-19T00:29:33.193Z,6.90
2018-08-19T00:32:02.999Z,7.00
2018-08-19T00:34:40.089Z,6.53
2018-08-19T00:37:10.012Z,7.40
2018-08-19T00:39:40.284Z,7.03
2018-08-19T00:42:11.440Z,6.50
2018-08-19T00:44:42.802Z,6.73
2018-08-19T00:47:12.823Z,6.53
2018-08-19T00:49:45.070Z,7.07
2018-08-19T00:52:16.135Z,6.93
2018-08-19T00:54:45.851Z,6.67
2018-08-19T00:57:16.060Z,7.77
2018-08-19T00:59:45.899Z,7.10
2018-08-19T01:02:15.564Z,7.27
2018-08-19T01:04:45.537Z,7.40
2018-08-19T01:07:16.106Z,7.03
2018-08-19T01:09:46.051Z,7.10
2018-08-19T01:12:15.991Z,6.50
2018-08-19T01:14:45.812Z,7.17
2018-08-19T01:17:16.737Z,7.23
2018-08-19T01:19:47.128Z,7.40
2018-08-19T01:22:20.320Z,7.20
2018-08-19T01:24:50.381Z,7.17
2018-08-19T01:27:20.301Z,6.73
2018-08-19T01:29:49.978Z,7.10
2018-08-19T01:32:21.908Z,7.13
2018-08-19T01:34:51.614Z,6.50
2018-08-19T01:37:32.044Z,7.03
2018-08-19T01:40:01.752Z,6.53
2018-08-19T01:42:31.491Z,6.37
2018-08-19T01:45:01.674Z,6.70
2018-08-19T01:47:31.412Z,6.60
2018-08-19T01:50:32.513Z,6.20
2018-08-19T01:53:02.127Z,6.07
2018-08-19T01:55:31.891Z,6.00
2018-08-19T02:12:15.509Z,7.57
2018-08-19T02:14:45.640Z,6.70
2018-08-19T02:17:15.934Z,6.77
2018-08-19T02:19:45.833Z,6.20
2018-08-19T02:23:04.762Z,7.10
2018-08-19T02:25:42.235Z,7.23
2018-08-19T02:28:13.194Z,6.63
2018-08-19T02:31:02.734Z,7.37
2018-08-19T02:33:35.533Z,7.10
2018-08-19T02:36:06.614Z,7.00
2018-08-19T02:38:39.130Z,6.90
2018-08-19T02:41:08.776Z,7.17
2018-08-19T02:43:45.023Z,7.43
2018-08-19T02:46:14.882Z,7.57
2018-08-19T02:52:24.160Z,7.70
2018-08-19T02:54:54.637Z,7.20
2018-08-19T02:57:27.222Z,7.10
2018-08-19T02:59:58.257Z,7.60
2018-08-19T03:05:22.998Z,7.10
2018-08-19T03:07:57.144Z,7.73
2018-08-19T03:10:27.782Z,8.23
2018-08-19T03:12:58.281Z,7.60
2018-08-19T03:18:23.421Z,7.30
2018-08-19T03:20:54.174Z,7.73
2018-08-19T03:23:25.242Z,7.37
2018-08-19T03:25:55.969Z,6.67
2018-08-19T03:28:47.258Z,8.00
2018-08-19T03:31:22.723Z,7.53
2018-08-19T03:33:52.826Z,7.67
2018-08-19T03:36:23.959Z,7.43
2018-08-19T03:39:01.377Z,7.60
2018-08-19T03:41:31.917Z,7.67
2018-08-19T03:44:02.145Z,7.40
2018-08-19T03:46:33.594Z,7.07
2018-08-19T03:49:04.059Z,6.87
2018-08-19T03:51:33.644Z,7.20
2018-08-19T03:54:05.884Z,7.00
2018-08-19T03:56:36.203Z,7.17
2018-08-19T03:59:08.017Z,6.90
2018-08-19T04:01:46.695Z,6.60
2018-08-19T04:04:17.731Z,6.80
2018-08-19T04:06:47.509Z,7.27
2018-08-19T04:10:01.385Z,6.47
2018-08-19T04:12:31.981Z,7.30
2018-08-19T04:15:03.145Z,7.27
2018-08-19T04:17:33.349Z,7.43
2018-08-19T04:20:07.915Z,6.80
2018-08-19T04:22:37.827Z,7.13
2018-08-19T04:25:07.649Z,5.93
2018-08-19T04:27:37.431Z,6.60
2018-08-19T04:30:07.606Z,6.70
2018-08-19T04:32:37.790Z,6.97
2018-08-19T04:35:09.015Z,6.63
2018-08-19T04:37:39.105Z,6.93
2018-08-19T04:45:56.707Z,7.30
2018-08-19T04:48:28.344Z,7.13
2018-08-19T04:50:58.432Z,7.63
2018-08-19T04:53:28.530Z,6.50
2018-08-19T04:55:58.158Z,6.20
2018-08-19T04:58:27.799Z,6.20
2018-08-19T05:08:05.967Z,6.77
2018-08-19T05:10:37.897Z,6.57
2018-08-19T05:13:31.807Z,7.70
2018-08-19T05:16:02.408Z,6.70
2018-08-19T05:18:33.965Z,6.43
2018-08-19T05:21:11.035Z,6.33
2018-08-19T05:26:20.621Z,6.20
2018-08-19T05:29:06.139Z,6.10
2018-08-19T05:31:39.232Z,6.23
2018-08-19T05:34:21.998Z,6.30
2018-08-19T05:36:52.167Z,5.30
2018-08-19T05:39:22.321Z,6.30
2018-08-19T05:42:03.841Z,5.53
2018-08-19T05:46:52.192Z,5.30
2018-08-19T05:58:04.338Z,5.40
2018-08-19T06:00:35.969Z,5.30
2018-08-19T06:05:49.206Z,4.83
2018-08-19T06:08:21.464Z,4.90
2018-08-19T06:10:54.412Z,4.80
2018-08-19T06:13:26.885Z,4.70
2018-08-19T06:15:58.394Z,5.10
2018-08-19T06:18:33.209Z,5.00
2018-08-19T06:24:40.109Z,5.43
2018-08-19T06:27:17.760Z,6.10
2018-08-19T06:29:57.870Z,4.47
2018-08-19T06:32:57.461Z,4.00
2018-08-19T06:35:36.641Z,3.80
2018-08-19T06:39:50.881Z,4.30
2018-08-19T06:45:35.401Z,5.03
2018-08-19T06:51:18.277Z,4.77
2018-08-19T06:54:05.903Z,4.83
2018-08-19T06:57:48.088Z,5.23
2018-08-19T07:06:47.572Z,5.80
2018-08-19T07:09:30.817Z,5.70
2018-08-19T07:12:15.328Z,5.90
2018-08-19T07:17:53.609Z,5.67
2018-08-19T07:23:36.098Z,4.90
2018-08-19T07:32:29.112Z,4.60
2018-08-19T07:49:10.880Z,7.00
2018-08-19T07:51:48.978Z,3.47
2018-08-19T07:54:19.835Z,4.13
2018-08-19T07:56:50.053Z,3.90
2018-08-19T07:59:20.136Z,3.83
2018-08-19T08:01:51.367Z,4.30
2018-08-19T08:04:27.327Z,4.00
2018-08-19T08:06:59.912Z,3.77
2018-08-19T08:09:31.030Z,3.90
2018-08-19T08:12:02.265Z,3.90
2018-08-19T08:14:33.329Z,4.07
2018-08-19T08:17:03.674Z,3.60
2018-08-19T08:19:38.085Z,3.93
2018-08-19T08:22:14.212Z,3.70
2018-08-19T08:24:45.059Z,3.63
2018-08-19T08:27:15.010Z,3.60
2018-08-19T08:29:48.180Z,3.67
2018-08-19T08:32:24.652Z,4.40
2018-08-19T08:35:02.396Z,3.47
2018-08-19T08:41:00.134Z,3.47
2018-08-19T08:43:30.105Z,4.00
2018-08-19T08:46:02.427Z,4.43
2018-08-19T08:48:35.424Z,5.43
2018-08-19T08:51:07.114Z,4.87
2018-08-19T08:53:45.367Z,3.57
2018-08-19T08:56:15.889Z,3.50
2018-08-19T08:58:51.613Z,3.60
2018-08-19T09:01:21.552Z,4.63
2018-08-19T09:03:51.349Z,4.97
2018-08-19T09:06:35.513Z,3.90
2018-08-19T09:09:08.187Z,3.77
2018-08-19T09:11:49.058Z,3.67
2018-08-19T09:14:20.977Z,3.43
2018-08-19T09:16:57.638Z,4.03
2018-08-19T09:22:28.286Z,4.03
2018-08-19T09:24:59.211Z,3.60
2018-08-19T09:30:35.026Z,3.40
2018-08-19T09:33:21.265Z,3.70
2018-08-19T09:35:51.613Z,3.43
2018-08-19T09:38:23.384Z,4.30
2018-08-19T09:43:29.635Z,3.90
2018-08-19T09:46:02.766Z,3.60
2018-08-19T09:48:37.213Z,3.43
2018-08-19T09:51:14.404Z,3.60
2018-08-19T09:56:52.946Z,3.60
2018-08-19T10:02:32.495Z,4.67
2018-08-19T10:06:01.645Z,4.10
2018-08-19T10:17:40.914Z,3.83
2018-08-19T10:20:31.049Z,4.20
2018-08-19T10:23:06.245Z,3.87
2018-08-19T10:25:36.013Z,4.87
2018-08-19T10:28:06.726Z,4.90
2018-08-19T10:30:56.825Z,4.40
2018-08-19T10:33:35.935Z,4.47
2018-08-19T10:36:06.266Z,4.40
2018-08-19T10:38:38.400Z,4.33
2018-08-19T10:44:12.576Z,4.70
2018-08-19T11:04:02.715Z,4.40
2018-08-19T11:06:43.309Z,4.00
2018-08-19T11:09:14.184Z,3.90
2018-08-19T11:11:52.370Z,3.83
2018-08-19T11:14:33.452Z,4.33
2018-08-19T11:17:04.261Z,3.73
2018-08-19T11:19:41.060Z,3.90
2018-08-19T11:22:20.683Z,3.57
2018-08-19T11:25:02.754Z,3.67
2018-08-19T11:27:39.857Z,3.67
2018-08-19T11:30:29.262Z,3.77
2018-08-19T11:33:09.169Z,3.90
2018-08-19T11:35:47.896Z,3.97
2018-08-19T11:38:20.072Z,4.00
2018-08-19T11:40:57.647Z,3.90
2018-08-19T11:43:27.932Z,4.10
2018-08-19T11:48:58.945Z,3.70
2018-08-19T11:52:05.394Z,3.43
2018-08-19T11:54:35.552Z,4.40
2018-08-19T12:00:19.599Z,3.83
2018-08-19T12:02:50.453Z,3.43
2018-08-19T12:05:21.332Z,4.20
2018-08-19T12:07:55.968Z,3.60
2018-08-19T12:10:29.496Z,4.10
2018-08-19T12:13:25.500Z,4.00
2018-08-19T12:32:11.444Z,3.63
2018-08-19T12:35:01.103Z,3.90
2018-08-19T12:37:32.566Z,3.73
2018-08-19T12:40:05.159Z,3.50
2018-08-19T12:43:12.296Z,3.93
2018-08-19T12:45:44.064Z,4.13
2018-08-19T12:48:31.540Z,3.60
2018-08-19T12:51:15.036Z,3.70
2018-08-19T12:59:19.454Z,4.00
2018-08-19T13:01:56.103Z,4.20
2018-08-19T13:09:45.242Z,4.20
2018-08-19T13:12:19.184Z,4.10
2018-08-19T13:14:50.563Z,3.80
2018-08-19T13:17:33.062Z,4.37
2018-08-19T13:20:15.345Z,4.10
2018-08-19T13:25:39.574Z,3.40
2018-08-19T13:28:12.347Z,3.70
2018-08-19T13:30:43.841Z,3.80
2018-08-19T13:33:13.915Z,4.07
2018-08-19T13:35:43.744Z,4.47
2018-08-19T13:38:24.151Z,3.90
2018-08-19T13:40:53.701Z,3.70
2018-08-19T13:43:24.089Z,4.03
2018-08-19T13:45:54.645Z,3.70
2018-08-19T13:48:28.250Z,3.70
2018-08-19T13:50:59.849Z,3.83
2018-08-19T13:53:30.535Z,3.80
2018-08-19T13:56:01.091Z,4.13
2018-08-19T13:58:35.203Z,3.97
2018-08-19T14:01:06.768Z,3.80
2018-08-19T14:03:36.910Z,3.93
2018-08-19T14:06:08.341Z,4.03
2018-08-19T14:08:40.152Z,3.40
2018-08-19T14:11:10.578Z,3.80
2018-08-19T14:13:41.238Z,3.63
2018-08-19T14:16:28.789Z,3.50
2018-08-19T14:19:03.325Z,3.87
2018-08-19T14:21:36.783Z,3.90
2018-08-19T14:24:07.564Z,3.67
2018-08-19T14:26:38.647Z,4.50
2018-08-19T14:29:09.217Z,4.03
2018-08-19T14:31:39.600Z,3.63
2018-08-19T14:46:16.366Z,3.50
2018-08-19T14:49:00.103Z,4.53
2018-08-19T14:54:52.891Z,4.00
2018-08-19T15:10:00.714Z,3.70
2018-08-19T15:12:51.691Z,4.00
2018-08-19T15:15:32.846Z,4.00
2018-08-19T15:27:07.021Z,4.00
2018-08-19T15:29:41.660Z,3.63
2018-08-19T15:32:13.134Z,3.90
2018-08-19T15:37:48.443Z,4.20
2018-08-19T15:40:29.689Z,3.80
2018-08-19T17:34:59.465Z,3.27
2018-08-19T17:40:36.406Z,3.77
2018-08-19T18:07:30.326Z,4.30
2018-08-19T18:16:25.609Z,3.87
2018-08-19T18:22:44.880Z,3.63
2018-08-19T18:25:17.555Z,3.53
2018-08-19T18:27:50.202Z,3.30
2018-08-19T18:30:40.416Z,3.77
2018-08-19T18:33:29.004Z,3.90
2018-08-19T18:38:59.453Z,3.60
2018-08-19T18:41:44.827Z,3.87
2018-08-19T18:44:34.330Z,4.47
2018-08-19T18:47:18.385Z,3.90
2018-08-19T19:03:42.371Z,3.70
2018-08-19T19:06:56.441Z,3.63
2018-08-19T19:09:37.088Z,4.17
2018-08-19T19:16:42.209Z,4.13
2018-08-19T19:19:17.233Z,3.70
2018-08-19T19:21:57.635Z,4.57
2018-08-19T19:33:03.999Z,4.40
2018-08-19T19:35:52.298Z,3.53
2018-08-19T19:38:52.122Z,3.90
2018-08-19T19:41:31.173Z,4.13
2018-08-19T19:44:16.120Z,5.00
2018-08-19T19:49:55.684Z,4.50
2018-08-19T19:52:35.524Z,4.37
2018-08-19T19:56:32.421Z,4.27
2018-08-19T20:05:21.474Z,4.10
2018-08-19T20:07:57.233Z,4.27
2018-08-19T20:13:58.568Z,4.13
2018-08-19T20:22:21.337Z,4.00
2018-08-19T20:25:08.769Z,4.50
2018-08-19T20:28:10.911Z,4.53
2018-08-19T20:48:40.967Z,4.60
2018-08-19T20:51:11.846Z,4.10
2018-08-19T20:54:03.926Z,4.27
2018-08-19T20:56:39.899Z,4.70
2018-08-19T20:59:14.057Z,4.40
2018-08-19T21:01:46.133Z,4.87
